sensor_id;sensor_type;location;lat;lon;timestamp;P1;durP1;ratioP1;P2;durP2;ratioP2
50429;SDS011;36359;41.556;-8.418;2022-07-18T00:00:14;16.10;;;10.80;;
50429;SDS011;36359;41.556;-8.418;2022-07-18T00:02:40;13.98;;;10.52;;
50429;SDS011;36359;41.556;-8.418;2022-07-18T00:05:06;16.63;;;11.88;;
50429;SDS011;36359;41.556;-8.418;2022-07-18T00:07:33;15.35;;;11.75;;
50429;SDS011;36359;41.556;-8.418;2022-07-18T00:09:59;12.38;;;8.52;;
50429;SDS011;36359;41.556;-8.418;2022-07-18T00:12:24;15.77;;;10.68;;
50429;SDS011;36359;41.556;-8.418;2022-07-18T00:14:50;21.75;;;12.40;;
50429;SDS011;36359;41.556;-8.418;2022-07-18T00:17:16;16.77;;;11.88;;
50429;SDS011;36359;41.556;-8.418;2022-07-18T00:19:42;15.88;;;12.05;;
50429;SDS011;36359;41.556;-8.418;2022-07-18T00:22:08;15.25;;;10.13;;
50429;SDS011;36359;41.556;-8.418;2022-07-18T00:24:34;18.83;;;13.13;;
50429;SDS011;36359;41.556;-8.418;2022-07-18T00:27:00;20.13;;;12.90;;
50429;SDS011;36359;41.556;-8.418;2022-07-18T00:29:26;15.13;;;10.82;;
50429;SDS011;36359;41.556;-8.418;2022-07-18T00:31:52;14.77;;;10.57;;
50429;SDS011;36359;41.556;-8.418;2022-07-18T00:34:18;18.95;;;11.82;;
50429;SDS011;36359;41.556;-8.418;2022-07-18T00:36:44;19.77;;;11.85;;
50429;SDS011;36359;41.556;-8.418;2022-07-18T00:39:10;17.30;;;11.93;;
50429;SDS011;36359;41.556;-8.418;2022-07-18T00:41:36;19.40;;;12.20;;
50429;SDS011;36359;41.556;-8.418;2022-07-18T00:44:01;16.85;;;11.43;;
50429;SDS011;36359;41.556;-8.418;2022-07-18T00:46:28;18.10;;;13.30;;
50429;SDS011;36359;41.556;-8.418;2022-07-18T00:48:54;22.13;;;13.48;;
50429;SDS011;36359;41.556;-8.418;2022-07-18T00:51:21;13.65;;;11.73;;
50429;SDS011;36359;41.556;-8.418;2022-07-18T00:53:47;19.90;;;12.07;;
50429;SDS011;36359;41.556;-8.418;2022-07-18T00:56:16;17.52;;;12.93;;
50429;SDS011;36359;41.556;-8.418;2022-07-18T01:01:11;16.05;;;13.15;;
50429;SDS011;36359;41.556;-8.418;2022-07-18T01:03:56;17.42;;;13.82;;
50429;SDS011;36359;41.556;-8.418;2022-07-18T01:06:22;22.17;;;13.77;;
50429;SDS011;36359;41.556;-8.418;2022-07-18T01:08:48;20.65;;;13.70;;
50429;SDS011;36359;41.556;-8.418;2022-07-18T01:11:13;17.17;;;12.40;;
50429;SDS011;36359;41.556;-8.418;2022-07-18T01:13:40;14.73;;;11.90;;
50429;SDS011;36359;41.556;-8.418;2022-07-18T01:16:06;12.52;;;8.70;;
50429;SDS011;36359;41.556;-8.418;2022-07-18T01:18:32;16.25;;;12.18;;
50429;SDS011;36359;41.556;-8.418;2022-07-18T01:23:27;16.98;;;13.80;;
50429;SDS011;36359;41.556;-8.418;2022-07-18T01:25:53;20.13;;;12.27;;
50429;SDS011;36359;41.556;-8.418;2022-07-18T01:28:18;16.52;;;12.32;;
50429;SDS011;36359;41.556;-8.418;2022-07-18T01:30:44;16.55;;;12.40;;
50429;SDS011;36359;41.556;-8.418;2022-07-18T01:33:10;21.50;;;13.35;;
50429;SDS011;36359;41.556;-8.418;2022-07-18T01:35:36;14.10;;;10.98;;
50429;SDS011;36359;41.556;-8.418;2022-07-18T01:38:02;22.92;;;13.45;;
50429;SDS011;36359;41.556;-8.418;2022-07-18T01:40:28;19.95;;;13.65;;
50429;SDS011;36359;41.556;-8.418;2022-07-18T01:42:55;19.25;;;13.82;;
50429;SDS011;36359;41.556;-8.418;2022-07-18T01:45:20;21.65;;;13.57;;
50429;SDS011;36359;41.556;-8.418;2022-07-18T01:47:46;16.75;;;13.60;;
50429;SDS011;36359;41.556;-8.418;2022-07-18T01:50:13;20.63;;;14.43;;
50429;SDS011;36359;41.556;-8.418;2022-07-18T01:52:40;18.70;;;13.23;;
50429;SDS011;36359;41.556;-8.418;2022-07-18T01:55:06;19.95;;;14.18;;
50429;SDS011;36359;41.556;-8.418;2022-07-18T01:57:33;17.00;;;13.15;;
50429;SDS011;36359;41.556;-8.418;2022-07-18T01:59:59;16.92;;;12.65;;
50429;SDS011;36359;41.556;-8.418;2022-07-18T02:02:25;20.27;;;15.07;;
50429;SDS011;36359;41.556;-8.418;2022-07-18T02:04:51;12.85;;;9.32;;
50429;SDS011;36359;41.556;-8.418;2022-07-18T02:07:26;16.17;;;13.07;;
50429;SDS011;36359;41.556;-8.418;2022-07-18T02:09:53;13.43;;;11.93;;
50429;SDS011;36359;41.556;-8.418;2022-07-18T02:12:19;10.05;;;7.97;;
50429;SDS011;36359;41.556;-8.418;2022-07-18T02:14:44;9.65;;;8.27;;
50429;SDS011;36359;41.556;-8.418;2022-07-18T02:17:10;10.02;;;8.32;;
50429;SDS011;36359;41.556;-8.418;2022-07-18T02:19:36;17.05;;;13.07;;
50429;SDS011;36359;41.556;-8.418;2022-07-18T02:22:02;19.13;;;13.13;;
50429;SDS011;36359;41.556;-8.418;2022-07-18T02:24:28;18.30;;;14.20;;
50429;SDS011;36359;41.556;-8.418;2022-07-18T02:26:54;20.20;;;14.55;;
50429;SDS011;36359;41.556;-8.418;2022-07-18T02:29:20;19.30;;;15.68;;
50429;SDS011;36359;41.556;-8.418;2022-07-18T02:31:46;24.35;;;15.48;;
50429;SDS011;36359;41.556;-8.418;2022-07-18T02:34:11;23.45;;;15.75;;
50429;SDS011;36359;41.556;-8.418;2022-07-18T02:36:38;21.65;;;17.25;;
50429;SDS011;36359;41.556;-8.418;2022-07-18T02:39:05;21.67;;;16.60;;
50429;SDS011;36359;41.556;-8.418;2022-07-18T02:41:32;19.50;;;15.80;;
50429;SDS011;36359;41.556;-8.418;2022-07-18T02:43:58;21.50;;;18.42;;
50429;SDS011;36359;41.556;-8.418;2022-07-18T02:46:25;23.05;;;15.98;;
50429;SDS011;36359;41.556;-8.418;2022-07-18T02:48:51;25.02;;;18.67;;
50429;SDS011;36359;41.556;-8.418;2022-07-18T02:51:16;23.67;;;18.13;;
50429;SDS011;36359;41.556;-8.418;2022-07-18T02:53:42;21.65;;;16.38;;
50429;SDS011;36359;41.556;-8.418;2022-07-18T02:56:08;26.30;;;18.00;;
50429;SDS011;36359;41.556;-8.418;2022-07-18T02:58:34;17.23;;;12.43;;
50429;SDS011;36359;41.556;-8.418;2022-07-18T03:01:00;25.02;;;17.17;;
50429;SDS011;36359;41.556;-8.418;2022-07-18T03:03:26;22.10;;;17.67;;
50429;SDS011;36359;41.556;-8.418;2022-07-18T03:05:51;15.93;;;10.65;;
50429;SDS011;36359;41.556;-8.418;2022-07-18T03:08:17;21.42;;;16.35;;
50429;SDS011;36359;41.556;-8.418;2022-07-18T03:10:43;18.15;;;14.25;;
50429;SDS011;36359;41.556;-8.418;2022-07-18T03:13:09;23.67;;;16.35;;
50429;SDS011;36359;41.556;-8.418;2022-07-18T03:15:36;21.40;;;15.77;;
50429;SDS011;36359;41.556;-8.418;2022-07-18T03:18:02;20.45;;;15.98;;
50429;SDS011;36359;41.556;-8.418;2022-07-18T03:20:28;12.73;;;10.52;;
50429;SDS011;36359;41.556;-8.418;2022-07-18T03:22:54;21.50;;;15.35;;
50429;SDS011;36359;41.556;-8.418;2022-07-18T03:25:20;17.52;;;12.45;;
50429;SDS011;36359;41.556;-8.418;2022-07-18T03:27:49;17.02;;;11.70;;
50429;SDS011;36359;41.556;-8.418;2022-07-18T03:30:14;23.70;;;17.70;;
50429;SDS011;36359;41.556;-8.418;2022-07-18T03:32:40;19.52;;;15.07;;
50429;SDS011;36359;41.556;-8.418;2022-07-18T03:35:06;19.33;;;13.75;;
50429;SDS011;36359;41.556;-8.418;2022-07-18T03:37:32;20.48;;;15.40;;
50429;SDS011;36359;41.556;-8.418;2022-07-18T03:39:58;16.98;;;11.80;;
50429;SDS011;36359;41.556;-8.418;2022-07-18T03:42:24;18.42;;;16.13;;
50429;SDS011;36359;41.556;-8.418;2022-07-18T03:44:49;23.08;;;16.15;;
50429;SDS011;36359;41.556;-8.418;2022-07-18T03:47:15;14.88;;;12.32;;
50429;SDS011;36359;41.556;-8.418;2022-07-18T03:49:41;18.67;;;15.57;;
50429;SDS011;36359;41.556;-8.418;2022-07-18T03:52:07;16.15;;;13.75;;
50429;SDS011;36359;41.556;-8.418;2022-07-18T03:54:32;19.67;;;13.38;;
50429;SDS011;36359;41.556;-8.418;2022-07-18T03:56:58;27.38;;;16.05;;
50429;SDS011;36359;41.556;-8.418;2022-07-18T03:59:24;18.98;;;15.00;;
50429;SDS011;36359;41.556;-8.418;2022-07-18T04:01:50;20.27;;;16.30;;
50429;SDS011;36359;41.556;-8.418;2022-07-18T04:04:15;18.60;;;15.82;;
50429;SDS011;36359;41.556;-8.418;2022-07-18T04:06:41;21.63;;;14.80;;
50429;SDS011;36359;41.556;-8.418;2022-07-18T04:09:07;17.55;;;13.93;;
50429;SDS011;36359;41.556;-8.418;2022-07-18T04:11:33;15.57;;;12.43;;
50429;SDS011;36359;41.556;-8.418;2022-07-18T04:13:58;16.88;;;14.32;;
50429;SDS011;36359;41.556;-8.418;2022-07-18T04:16:24;21.08;;;15.32;;
50429;SDS011;36359;41.556;-8.418;2022-07-18T04:18:50;16.45;;;12.75;;
50429;SDS011;36359;41.556;-8.418;2022-07-18T04:21:16;17.08;;;13.57;;
50429;SDS011;36359;41.556;-8.418;2022-07-18T04:23:42;17.45;;;13.77;;
50429;SDS011;36359;41.556;-8.418;2022-07-18T04:26:08;17.25;;;14.05;;
50429;SDS011;36359;41.556;-8.418;2022-07-18T04:28:34;14.90;;;12.90;;
50429;SDS011;36359;41.556;-8.418;2022-07-18T04:31:00;18.15;;;14.73;;
50429;SDS011;36359;41.556;-8.418;2022-07-18T04:33:26;16.50;;;13.45;;
50429;SDS011;36359;41.556;-8.418;2022-07-18T04:35:52;15.82;;;12.25;;
50429;SDS011;36359;41.556;-8.418;2022-07-18T04:38:17;13.07;;;9.65;;
50429;SDS011;36359;41.556;-8.418;2022-07-18T04:40:43;13.68;;;9.40;;
50429;SDS011;36359;41.556;-8.418;2022-07-18T04:43:09;16.98;;;11.50;;
50429;SDS011;36359;41.556;-8.418;2022-07-18T04:45:35;12.25;;;10.10;;
50429;SDS011;36359;41.556;-8.418;2022-07-18T04:48:02;13.70;;;11.00;;
50429;SDS011;36359;41.556;-8.418;2022-07-18T04:50:29;16.52;;;12.52;;
50429;SDS011;36359;41.556;-8.418;2022-07-18T04:52:55;13.18;;;9.05;;
50429;SDS011;36359;41.556;-8.418;2022-07-18T04:55:22;10.43;;;7.60;;
50429;SDS011;36359;41.556;-8.418;2022-07-18T04:57:49;9.02;;;7.00;;
50429;SDS011;36359;41.556;-8.418;2022-07-18T05:00:16;11.23;;;7.60;;
50429;SDS011;36359;41.556;-8.418;2022-07-18T05:02:48;14.10;;;9.98;;
50429;SDS011;36359;41.556;-8.418;2022-07-18T05:05:16;8.00;;;6.10;;
50429;SDS011;36359;41.556;-8.418;2022-07-18T05:07:43;15.02;;;10.95;;
50429;SDS011;36359;41.556;-8.418;2022-07-18T05:10:10;15.25;;;10.80;;
50429;SDS011;36359;41.556;-8.418;2022-07-18T05:12:37;16.83;;;11.82;;
50429;SDS011;36359;41.556;-8.418;2022-07-18T05:15:05;16.20;;;12.52;;
50429;SDS011;36359;41.556;-8.418;2022-07-18T05:17:32;14.75;;;12.95;;
50429;SDS011;36359;41.556;-8.418;2022-07-18T05:19:58;18.23;;;13.70;;
50429;SDS011;36359;41.556;-8.418;2022-07-18T05:24:56;12.20;;;9.05;;
50429;SDS011;36359;41.556;-8.418;2022-07-18T05:27:22;17.73;;;12.65;;
50429;SDS011;36359;41.556;-8.418;2022-07-18T05:29:47;18.50;;;12.27;;
50429;SDS011;36359;41.556;-8.418;2022-07-18T05:32:13;16.95;;;13.30;;
50429;SDS011;36359;41.556;-8.418;2022-07-18T05:34:39;16.00;;;13.52;;
50429;SDS011;36359;41.556;-8.418;2022-07-18T05:37:05;17.05;;;11.77;;
50429;SDS011;36359;41.556;-8.418;2022-07-18T05:39:32;18.17;;;12.68;;
50429;SDS011;36359;41.556;-8.418;2022-07-18T05:41:58;17.83;;;11.10;;
50429;SDS011;36359;41.556;-8.418;2022-07-18T05:44:24;19.20;;;11.00;;
50429;SDS011;36359;41.556;-8.418;2022-07-18T05:46:49;19.05;;;12.38;;
50429;SDS011;36359;41.556;-8.418;2022-07-18T05:49:15;18.50;;;12.00;;
50429;SDS011;36359;41.556;-8.418;2022-07-18T05:51:41;18.63;;;11.88;;
50429;SDS011;36359;41.556;-8.418;2022-07-18T05:54:07;14.93;;;12.30;;
50429;SDS011;36359;41.556;-8.418;2022-07-18T05:56:33;15.98;;;11.38;;
50429;SDS011;36359;41.556;-8.418;2022-07-18T05:58:59;15.05;;;12.07;;
50429;SDS011;36359;41.556;-8.418;2022-07-18T06:01:25;19.95;;;11.95;;
50429;SDS011;36359;41.556;-8.418;2022-07-18T06:03:51;14.02;;;11.63;;
50429;SDS011;36359;41.556;-8.418;2022-07-18T06:06:17;21.52;;;13.13;;
50429;SDS011;36359;41.556;-8.418;2022-07-18T06:08:43;13.80;;;10.27;;
50429;SDS011;36359;41.556;-8.418;2022-07-18T06:11:10;18.05;;;12.63;;
50429;SDS011;36359;41.556;-8.418;2022-07-18T06:13:37;20.83;;;12.20;;
50429;SDS011;36359;41.556;-8.418;2022-07-18T06:16:04;24.45;;;12.57;;
50429;SDS011;36359;41.556;-8.418;2022-07-18T06:18:31;17.95;;;13.18;;
50429;SDS011;36359;41.556;-8.418;2022-07-18T06:20:57;17.60;;;12.10;;
50429;SDS011;36359;41.556;-8.418;2022-07-18T06:23:23;20.92;;;13.55;;
50429;SDS011;36359;41.556;-8.418;2022-07-18T06:25:48;13.32;;;10.43;;
50429;SDS011;36359;41.556;-8.418;2022-07-18T06:28:14;16.73;;;11.27;;
50429;SDS011;36359;41.556;-8.418;2022-07-18T06:30:40;18.70;;;11.57;;
50429;SDS011;36359;41.556;-8.418;2022-07-18T06:33:06;19.38;;;13.13;;
50429;SDS011;36359;41.556;-8.418;2022-07-18T06:35:33;18.10;;;10.80;;
50429;SDS011;36359;41.556;-8.418;2022-07-18T06:37:59;15.55;;;11.13;;
50429;SDS011;36359;41.556;-8.418;2022-07-18T06:40:25;22.85;;;14.63;;
50429;SDS011;36359;41.556;-8.418;2022-07-18T06:42:51;19.88;;;13.90;;
50429;SDS011;36359;41.556;-8.418;2022-07-18T06:45:18;11.63;;;8.95;;
50429;SDS011;36359;41.556;-8.418;2022-07-18T06:47:44;14.25;;;10.30;;
50429;SDS011;36359;41.556;-8.418;2022-07-18T06:50:11;21.63;;;12.32;;
50429;SDS011;36359;41.556;-8.418;2022-07-18T06:52:38;13.85;;;9.07;;
50429;SDS011;36359;41.556;-8.418;2022-07-18T06:55:05;11.40;;;6.95;;
50429;SDS011;36359;41.556;-8.418;2022-07-18T06:57:31;15.80;;;11.05;;
50429;SDS011;36359;41.556;-8.418;2022-07-18T06:59:57;11.68;;;8.02;;
50429;SDS011;36359;41.556;-8.418;2022-07-18T07:02:23;17.48;;;12.93;;
50429;SDS011;36359;41.556;-8.418;2022-07-18T07:04:49;16.77;;;12.75;;
50429;SDS011;36359;41.556;-8.418;2022-07-18T07:07:15;18.33;;;13.57;;
50429;SDS011;36359;41.556;-8.418;2022-07-18T07:09:40;15.27;;;12.55;;
50429;SDS011;36359;41.556;-8.418;2022-07-18T07:12:06;15.95;;;11.07;;
50429;SDS011;36359;41.556;-8.418;2022-07-18T07:14:32;15.48;;;12.93;;
50429;SDS011;36359;41.556;-8.418;2022-07-18T07:16:58;20.52;;;14.90;;
50429;SDS011;36359;41.556;-8.418;2022-07-18T07:19:24;16.98;;;13.88;;
50429;SDS011;36359;41.556;-8.418;2022-07-18T07:21:49;19.30;;;14.30;;
50429;SDS011;36359;41.556;-8.418;2022-07-18T07:24:15;19.48;;;14.88;;
50429;SDS011;36359;41.556;-8.418;2022-07-18T07:26:41;18.75;;;14.13;;
50429;SDS011;36359;41.556;-8.418;2022-07-18T07:29:07;18.15;;;14.65;;
50429;SDS011;36359;41.556;-8.418;2022-07-18T07:31:32;17.67;;;12.25;;
50429;SDS011;36359;41.556;-8.418;2022-07-18T07:33:58;19.35;;;13.63;;
50429;SDS011;36359;41.556;-8.418;2022-07-18T07:36:24;22.55;;;14.20;;
50429;SDS011;36359;41.556;-8.418;2022-07-18T07:38:49;18.52;;;13.30;;
50429;SDS011;36359;41.556;-8.418;2022-07-18T07:41:15;19.88;;;13.50;;
50429;SDS011;36359;41.556;-8.418;2022-07-18T07:43:41;18.55;;;12.73;;
50429;SDS011;36359;41.556;-8.418;2022-07-18T07:46:07;21.63;;;14.30;;
50429;SDS011;36359;41.556;-8.418;2022-07-18T07:48:33;20.85;;;12.50;;
50429;SDS011;36359;41.556;-8.418;2022-07-18T07:50:58;10.18;;;7.32;;
50429;SDS011;36359;41.556;-8.418;2022-07-18T07:55:56;7.18;;;6.20;;
50429;SDS011;36359;41.556;-8.418;2022-07-18T07:58:22;8.20;;;6.07;;
50429;SDS011;36359;41.556;-8.418;2022-07-18T08:00:48;23.08;;;13.18;;
50429;SDS011;36359;41.556;-8.418;2022-07-18T08:03:14;12.95;;;8.05;;
50429;SDS011;36359;41.556;-8.418;2022-07-18T08:05:49;15.77;;;10.57;;
50429;SDS011;36359;41.556;-8.418;2022-07-18T08:08:16;50.20;;;10.02;;
50429;SDS011;36359;41.556;-8.418;2022-07-18T08:10:42;24.30;;;12.25;;
50429;SDS011;36359;41.556;-8.418;2022-07-18T08:13:09;20.27;;;11.80;;
50429;SDS011;36359;41.556;-8.418;2022-07-18T08:15:36;13.95;;;8.20;;
50429;SDS011;36359;41.556;-8.418;2022-07-18T08:18:02;18.92;;;11.60;;
50429;SDS011;36359;41.556;-8.418;2022-07-18T08:20:28;15.57;;;10.93;;
50429;SDS011;36359;41.556;-8.418;2022-07-18T08:22:59;17.27;;;9.93;;
50429;SDS011;36359;41.556;-8.418;2022-07-18T08:25:25;14.15;;;11.18;;
50429;SDS011;36359;41.556;-8.418;2022-07-18T08:27:53;14.93;;;9.65;;
50429;SDS011;36359;41.556;-8.418;2022-07-18T08:30:19;19.00;;;11.45;;
50429;SDS011;36359;41.556;-8.418;2022-07-18T08:32:45;19.05;;;10.60;;
50429;SDS011;36359;41.556;-8.418;2022-07-18T08:35:10;16.52;;;10.40;;
50429;SDS011;36359;41.556;-8.418;2022-07-18T08:37:36;14.02;;;10.85;;
50429;SDS011;36359;41.556;-8.418;2022-07-18T08:40:02;16.33;;;11.40;;
50429;SDS011;36359;41.556;-8.418;2022-07-18T08:42:28;19.42;;;10.80;;
50429;SDS011;36359;41.556;-8.418;2022-07-18T08:44:57;20.02;;;10.80;;
50429;SDS011;36359;41.556;-8.418;2022-07-18T08:47:23;11.73;;;8.40;;
50429;SDS011;36359;41.556;-8.418;2022-07-18T08:49:49;21.95;;;13.82;;
50429;SDS011;36359;41.556;-8.418;2022-07-18T08:52:15;11.07;;;8.77;;
50429;SDS011;36359;41.556;-8.418;2022-07-18T08:54:41;16.13;;;8.40;;
50429;SDS011;36359;41.556;-8.418;2022-07-18T08:57:08;20.10;;;10.93;;
50429;SDS011;36359;41.556;-8.418;2022-07-18T08:59:34;15.70;;;7.30;;
50429;SDS011;36359;41.556;-8.418;2022-07-18T09:02:00;19.88;;;10.07;;
50429;SDS011;36359;41.556;-8.418;2022-07-18T09:06:59;14.38;;;8.30;;
50429;SDS011;36359;41.556;-8.418;2022-07-18T09:09:25;13.70;;;8.43;;
50429;SDS011;36359;41.556;-8.418;2022-07-18T09:17:01;13.70;;;8.05;;
50429;SDS011;36359;41.556;-8.418;2022-07-18T09:19:29;9.98;;;5.70;;
50429;SDS011;36359;41.556;-8.418;2022-07-18T09:22:10;12.23;;;6.93;;
50429;SDS011;36359;41.556;-8.418;2022-07-18T09:24:50;11.98;;;7.50;;
50429;SDS011;36359;41.556;-8.418;2022-07-18T09:27:25;11.93;;;6.50;;
50429;SDS011;36359;41.556;-8.418;2022-07-18T09:30:07;11.88;;;6.90;;
50429;SDS011;36359;41.556;-8.418;2022-07-18T09:32:34;11.63;;;6.10;;
50429;SDS011;36359;41.556;-8.418;2022-07-18T09:35:04;8.88;;;5.38;;
50429;SDS011;36359;41.556;-8.418;2022-07-18T09:42:40;7.40;;;4.50;;
50429;SDS011;36359;41.556;-8.418;2022-07-18T09:45:06;11.05;;;4.82;;
50429;SDS011;36359;41.556;-8.418;2022-07-18T09:47:47;11.77;;;5.28;;
50429;SDS011;36359;41.556;-8.418;2022-07-18T09:50:19;11.63;;;5.00;;
50429;SDS011;36359;41.556;-8.418;2022-07-18T09:52:59;11.20;;;4.68;;
50429;SDS011;36359;41.556;-8.418;2022-07-18T09:55:34;9.23;;;4.57;;
50429;SDS011;36359;41.556;-8.418;2022-07-18T09:58:05;10.13;;;4.63;;
50429;SDS011;36359;41.556;-8.418;2022-07-18T10:00:34;8.23;;;4.68;;
50429;SDS011;36359;41.556;-8.418;2022-07-18T10:03:02;8.25;;;4.45;;
50429;SDS011;36359;41.556;-8.418;2022-07-18T10:05:31;8.70;;;4.55;;
50429;SDS011;36359;41.556;-8.418;2022-07-18T10:07:59;9.18;;;4.13;;
50429;SDS011;36359;41.556;-8.418;2022-07-18T10:10:28;11.45;;;4.40;;
50429;SDS011;36359;41.556;-8.418;2022-07-18T10:12:55;9.65;;;4.40;;
50429;SDS011;36359;41.556;-8.418;2022-07-18T10:15:27;9.43;;;4.28;;
50429;SDS011;36359;41.556;-8.418;2022-07-18T10:17:55;7.43;;;4.60;;
50429;SDS011;36359;41.556;-8.418;2022-07-18T10:20:30;11.55;;;4.85;;
50429;SDS011;36359;41.556;-8.418;2022-07-18T10:22:59;8.90;;;4.53;;
50429;SDS011;36359;41.556;-8.418;2022-07-18T10:25:31;5.88;;;4.10;;
50429;SDS011;36359;41.556;-8.418;2022-07-18T10:28:05;9.45;;;4.35;;
50429;SDS011;36359;41.556;-8.418;2022-07-18T10:36:05;10.27;;;4.57;;
50429;SDS011;36359;41.556;-8.418;2022-07-18T10:38:38;9.48;;;3.83;;
50429;SDS011;36359;41.556;-8.418;2022-07-18T10:41:24;7.30;;;3.97;;
50429;SDS011;36359;41.556;-8.418;2022-07-18T10:43:50;6.40;;;3.92;;
50429;SDS011;36359;41.556;-8.418;2022-07-18T10:46:16;6.70;;;3.95;;
50429;SDS011;36359;41.556;-8.418;2022-07-18T10:51:08;5.15;;;3.53;;
50429;SDS011;36359;41.556;-8.418;2022-07-18T10:57:04;7.40;;;3.58;;
50429;SDS011;36359;41.556;-8.418;2022-07-18T10:59:14;7.18;;;3.45;;
50429;SDS011;36359;41.556;-8.418;2022-07-18T11:01:48;8.32;;;3.65;;
50429;SDS011;36359;41.556;-8.418;2022-07-18T11:04:26;8.80;;;3.90;;
50429;SDS011;36359;41.556;-8.418;2022-07-18T11:06:56;6.85;;;3.33;;
50429;SDS011;36359;41.556;-8.418;2022-07-18T11:09:34;7.25;;;3.20;;
50429;SDS011;36359;41.556;-8.418;2022-07-18T11:15:09;6.43;;;3.13;;
50429;SDS011;36359;41.556;-8.418;2022-07-18T11:23:15;9.85;;;2.92;;
50429;SDS011;36359;41.556;-8.418;2022-07-18T11:28:14;5.07;;;2.97;;
50429;SDS011;36359;41.556;-8.418;2022-07-18T11:30:41;6.10;;;2.95;;
50429;SDS011;36359;41.556;-8.418;2022-07-18T11:33:20;7.00;;;3.05;;
50429;SDS011;36359;41.556;-8.418;2022-07-18T11:35:51;12.13;;;3.42;;
50429;SDS011;36359;41.556;-8.418;2022-07-18T11:38:17;7.05;;;2.88;;
50429;SDS011;36359;41.556;-8.418;2022-07-18T11:40:47;7.18;;;3.55;;
50429;SDS011;36359;41.556;-8.418;2022-07-18T11:43:19;7.28;;;3.40;;
50429;SDS011;36359;41.556;-8.418;2022-07-18T11:45:58;10.23;;;4.15;;
50429;SDS011;36359;41.556;-8.418;2022-07-18T11:48:25;7.22;;;3.45;;
50429;SDS011;36359;41.556;-8.418;2022-07-18T11:50:51;7.00;;;3.25;;
50429;SDS011;36359;41.556;-8.418;2022-07-18T11:53:17;6.82;;;3.97;;
50429;SDS011;36359;41.556;-8.418;2022-07-18T11:55:43;10.70;;;3.42;;
50429;SDS011;36359;41.556;-8.418;2022-07-18T11:58:12;7.13;;;3.97;;
50429;SDS011;36359;41.556;-8.418;2022-07-18T12:00:39;7.60;;;3.45;;
50429;SDS011;36359;41.556;-8.418;2022-07-18T12:03:17;7.07;;;3.63;;
50429;SDS011;36359;41.556;-8.418;2022-07-18T12:05:44;7.50;;;3.90;;
50429;SDS011;36359;41.556;-8.418;2022-07-18T12:11:14;6.50;;;3.15;;
50429;SDS011;36359;41.556;-8.418;2022-07-18T12:16:28;8.05;;;3.00;;
50429;SDS011;36359;41.556;-8.418;2022-07-18T12:19:08;7.53;;;3.20;;
50429;SDS011;36359;41.556;-8.418;2022-07-18T12:21:56;8.95;;;3.00;;
50429;SDS011;36359;41.556;-8.418;2022-07-18T12:29:59;7.45;;;2.92;;
50429;SDS011;36359;41.556;-8.418;2022-07-18T12:35:28;8.75;;;3.10;;
50429;SDS011;36359;41.556;-8.418;2022-07-18T12:38:06;7.30;;;3.03;;
50429;SDS011;36359;41.556;-8.418;2022-07-18T12:40:40;5.85;;;3.10;;
50429;SDS011;36359;41.556;-8.418;2022-07-18T12:43:25;6.32;;;2.88;;
50429;SDS011;36359;41.556;-8.418;2022-07-18T12:45:51;4.38;;;2.72;;
50429;SDS011;36359;41.556;-8.418;2022-07-18T12:48:17;6.22;;;2.80;;
50429;SDS011;36359;41.556;-8.418;2022-07-18T12:50:43;4.55;;;2.35;;
50429;SDS011;36359;41.556;-8.418;2022-07-18T12:53:12;8.43;;;2.70;;
50429;SDS011;36359;41.556;-8.418;2022-07-18T12:55:38;5.35;;;2.30;;
50429;SDS011;36359;41.556;-8.418;2022-07-18T12:58:05;4.82;;;2.17;;
50429;SDS011;36359;41.556;-8.418;2022-07-18T13:00:32;9.43;;;2.55;;
50429;SDS011;36359;41.556;-8.418;2022-07-18T13:02:58;5.72;;;2.40;;
50429;SDS011;36359;41.556;-8.418;2022-07-18T13:05:25;4.40;;;2.40;;
50429;SDS011;36359;41.556;-8.418;2022-07-18T13:07:52;5.50;;;2.30;;
50429;SDS011;36359;41.556;-8.418;2022-07-18T13:10:18;6.07;;;2.38;;
50429;SDS011;36359;41.556;-8.418;2022-07-18T13:12:43;4.82;;;2.58;;
50429;SDS011;36359;41.556;-8.418;2022-07-18T13:15:09;6.13;;;2.13;;
50429;SDS011;36359;41.556;-8.418;2022-07-18T13:17:35;5.55;;;1.70;;
50429;SDS011;36359;41.556;-8.418;2022-07-18T13:20:02;11.38;;;2.10;;
50429;SDS011;36359;41.556;-8.418;2022-07-18T13:22:29;5.47;;;1.90;;
50429;SDS011;36359;41.556;-8.418;2022-07-18T13:25:05;6.78;;;2.00;;
50429;SDS011;36359;41.556;-8.418;2022-07-18T13:27:33;7.65;;;1.88;;
50429;SDS011;36359;41.556;-8.418;2022-07-18T13:29:59;8.32;;;2.05;;
50429;SDS011;36359;41.556;-8.418;2022-07-18T13:32:28;4.97;;;1.88;;
50429;SDS011;36359;41.556;-8.418;2022-07-18T13:34:54;4.35;;;2.15;;
50429;SDS011;36359;41.556;-8.418;2022-07-18T13:37:20;6.30;;;1.98;;
50429;SDS011;36359;41.556;-8.418;2022-07-18T13:39:46;5.63;;;1.83;;
50429;SDS011;36359;41.556;-8.418;2022-07-18T13:42:12;5.15;;;1.77;;
50429;SDS011;36359;41.556;-8.418;2022-07-18T13:44:38;6.43;;;2.38;;
50429;SDS011;36359;41.556;-8.418;2022-07-18T13:47:04;3.47;;;1.77;;
50429;SDS011;36359;41.556;-8.418;2022-07-18T13:49:29;4.35;;;1.63;;
50429;SDS011;36359;41.556;-8.418;2022-07-18T13:51:55;7.28;;;2.63;;
50429;SDS011;36359;41.556;-8.418;2022-07-18T13:54:21;4.15;;;1.75;;
50429;SDS011;36359;41.556;-8.418;2022-07-18T13:56:47;8.93;;;1.80;;
50429;SDS011;36359;41.556;-8.418;2022-07-18T13:59:13;5.90;;;2.03;;
50429;SDS011;36359;41.556;-8.418;2022-07-18T14:01:40;8.05;;;2.10;;
50429;SDS011;36359;41.556;-8.418;2022-07-18T14:04:06;8.15;;;1.98;;
50429;SDS011;36359;41.556;-8.418;2022-07-18T14:06:33;11.15;;;1.73;;
50429;SDS011;36359;41.556;-8.418;2022-07-18T14:09:01;6.88;;;1.60;;
50429;SDS011;36359;41.556;-8.418;2022-07-18T14:11:31;7.20;;;1.67;;
50429;SDS011;36359;41.556;-8.418;2022-07-18T14:14:00;8.95;;;2.08;;
50429;SDS011;36359;41.556;-8.418;2022-07-18T14:16:28;10.73;;;2.22;;
50429;SDS011;36359;41.556;-8.418;2022-07-18T14:18:55;6.43;;;1.90;;
50429;SDS011;36359;41.556;-8.418;2022-07-18T14:21:23;7.13;;;2.17;;
50429;SDS011;36359;41.556;-8.418;2022-07-18T14:23:50;9.20;;;2.25;;
50429;SDS011;36359;41.556;-8.418;2022-07-18T14:26:16;6.50;;;2.30;;
50429;SDS011;36359;41.556;-8.418;2022-07-18T14:28:42;12.55;;;2.08;;
50429;SDS011;36359;41.556;-8.418;2022-07-18T14:31:08;6.40;;;2.10;;
50429;SDS011;36359;41.556;-8.418;2022-07-18T14:33:34;7.82;;;2.33;;
50429;SDS011;36359;41.556;-8.418;2022-07-18T14:36:00;7.35;;;2.25;;
50429;SDS011;36359;41.556;-8.418;2022-07-18T14:38:26;5.53;;;1.83;;
50429;SDS011;36359;41.556;-8.418;2022-07-18T14:40:52;7.30;;;2.20;;
50429;SDS011;36359;41.556;-8.418;2022-07-18T14:43:18;7.93;;;1.90;;
50429;SDS011;36359;41.556;-8.418;2022-07-18T14:45:43;8.13;;;2.10;;
50429;SDS011;36359;41.556;-8.418;2022-07-18T14:48:09;15.18;;;2.20;;
50429;SDS011;36359;41.556;-8.418;2022-07-18T14:50:35;5.50;;;2.05;;
50429;SDS011;36359;41.556;-8.418;2022-07-18T14:53:01;9.60;;;2.28;;
50429;SDS011;36359;41.556;-8.418;2022-07-18T14:55:29;9.45;;;2.72;;
50429;SDS011;36359;41.556;-8.418;2022-07-18T14:57:55;11.02;;;2.50;;
50429;SDS011;36359;41.556;-8.418;2022-07-18T15:00:20;8.88;;;2.20;;
50429;SDS011;36359;41.556;-8.418;2022-07-18T15:02:46;7.65;;;2.10;;
50429;SDS011;36359;41.556;-8.418;2022-07-18T15:05:12;6.38;;;2.00;;
50429;SDS011;36359;41.556;-8.418;2022-07-18T15:07:38;7.28;;;2.58;;
50429;SDS011;36359;41.556;-8.418;2022-07-18T15:10:05;15.00;;;3.05;;
50429;SDS011;36359;41.556;-8.418;2022-07-18T15:12:31;8.80;;;2.30;;
50429;SDS011;36359;41.556;-8.418;2022-07-18T15:14:57;7.43;;;2.08;;
50429;SDS011;36359;41.556;-8.418;2022-07-18T15:17:24;13.93;;;2.60;;